createdAt,value
2022-09-04T00:02:17.551Z,100371.39
2022-09-04T00:08:14.994Z,100370.60
2022-09-04T00:11:14.959Z,100380.44
2022-09-04T00:13:48.808Z,100383.59
2022-09-04T00:16:30.609Z,100374.70
2022-09-04T00:19:21.599Z,100378.68
2022-09-04T00:22:00.582Z,100384.20
2022-09-04T00:24:42.232Z,100388.26
2022-09-04T00:27:20.776Z,100387.55
2022-09-04T00:29:56.885Z,100390.53
2022-09-04T00:32:32.603Z,100390.53
2022-09-04T00:35:29.337Z,100397.23
2022-09-04T00:38:05.341Z,100404.78
2022-09-04T00:40:48.311Z,100404.78
2022-09-04T00:43:42.928Z,100408.72
2022-09-04T00:46:48.875Z,100408.72
2022-09-04T00:49:39.688Z,100396.13
2022-09-04T00:52:31.323Z,100391.34
2022-09-04T00:55:10.786Z,100382.66
2022-09-04T00:58:01.846Z,100388.63
2022-09-04T01:00:32.630Z,100388.63
2022-09-04T01:03:30.246Z,100387.28
2022-09-04T01:06:30.902Z,100376.38
2022-09-04T01:09:07.177Z,100376.20
2022-09-04T01:12:10.963Z,100381.70
2022-09-04T01:14:52.991Z,100372.27
2022-09-04T01:17:40.363Z,100365.48
2022-09-04T01:20:22.579Z,100371.02
2022-09-04T01:29:15.194Z,100384.54
2022-09-04T01:32:06.278Z,100380.70
2022-09-04T01:38:18.861Z,100372.59
2022-09-04T01:41:07.074Z,100367.41
2022-09-04T01:43:37.494Z,100363.80
2022-09-04T01:49:28.875Z,100358.98
2022-09-04T01:52:22.536Z,100346.88
2022-09-04T01:55:02.149Z,100346.88
2022-09-04T01:57:50.176Z,100347.27
2022-09-04T02:00:24.951Z,100358.16
2022-09-04T02:06:04.199Z,100354.74
2022-09-04T02:08:58.258Z,100360.08
2022-09-04T02:11:32.729Z,100360.08
2022-09-04T02:14:21.063Z,100366.55
2022-09-04T02:17:03.632Z,100366.55
2022-09-04T02:19:49.206Z,100376.94
2022-09-04T02:22:28.393Z,100376.94
2022-09-04T02:25:19.762Z,100373.81
2022-09-04T02:27:56.165Z,100373.42
2022-09-04T02:30:47.174Z,100381.88
2022-09-04T02:33:24.691Z,100383.31
2022-09-04T02:36:21.530Z,100388.75
2022-09-04T02:39:04.005Z,100388.75
2022-09-04T02:41:40.784Z,100392.25
2022-09-04T02:44:42.459Z,100398.06
2022-09-04T02:47:37.677Z,100395.88
2022-09-04T02:50:40.388Z,100395.88
2022-09-04T02:53:34.051Z,100389.37
2022-09-04T02:56:34.044Z,100393.55
2022-09-04T02:59:27.803Z,100393.55
2022-09-04T03:04:49.986Z,100386.11
2022-09-04T03:07:47.183Z,100389.63
2022-09-04T03:10:20.372Z,100392.33
2022-09-04T03:12:59.359Z,100388.82
2022-09-04T03:15:42.572Z,100388.82
2022-09-04T03:21:17.614Z,100393.73
2022-09-04T03:23:56.280Z,100393.73
2022-09-04T03:26:32.312Z,100400.14
2022-09-04T03:29:28.375Z,100405.62
2022-09-04T03:32:17.062Z,100405.62
2022-09-04T03:34:57.225Z,100407.50
2022-09-04T03:37:36.192Z,100422.47
2022-09-04T03:40:29.722Z,100417.40
2022-09-04T03:43:26.530Z,100421.91
2022-09-04T03:49:20.391Z,100429.28
2022-09-04T03:52:14.120Z,100434.94
2022-09-04T03:58:10.798Z,100437.88
2022-09-04T04:00:50.312Z,100443.20
2022-09-04T04:03:29.647Z,100442.39
2022-09-04T04:06:22.616Z,100444.09
2022-09-04T04:09:07.752Z,100440.75
2022-09-04T04:14:37.984Z,100450.75
2022-09-04T04:20:24.173Z,100456.81
2022-09-04T04:23:18.702Z,100456.81
2022-09-04T04:26:12.460Z,100452.94
2022-09-04T04:29:05.423Z,100451.39
2022-09-04T04:32:10.327Z,100458.02
2022-09-04T04:34:46.573Z,100465.73
2022-09-04T04:37:46.692Z,100469.37
2022-09-04T04:40:28.805Z,100475.16
2022-09-04T04:46:15.902Z,100487.77
2022-09-04T04:49:06.810Z,100495.07
2022-09-04T04:52:15.297Z,100489.64
2022-09-04T04:55:03.401Z,100484.50
2022-09-04T05:01:07.716Z,100486.06
2022-09-04T05:04:12.387Z,100483.10
2022-09-04T05:09:58.413Z,100479.58
2022-09-04T05:12:40.808Z,100496.38
2022-09-04T05:15:32.658Z,100505.91
2022-09-04T05:18:23.825Z,100505.91
2022-09-04T05:21:20.407Z,100512.35
2022-09-04T05:23:56.597Z,100507.84
2022-09-04T05:26:58.622Z,100504.66
2022-09-04T05:29:54.244Z,100508.81
2022-09-04T05:32:27.563Z,100509.80
2022-09-04T05:35:17.345Z,100519.88
2022-09-04T05:38:18.802Z,100523.44
2022-09-04T05:41:22.092Z,100523.44
2022-09-04T05:47:09.302Z,100524.63
2022-09-04T05:50:09.940Z,100524.63
2022-09-04T05:52:55.435Z,100536.92
2022-09-04T05:55:40.446Z,100541.63
2022-09-04T05:58:30.333Z,100545.84
2022-09-04T06:01:29.404Z,100551.74
2022-09-04T06:04:35.656Z,100554.91
2022-09-04T06:07:08.863Z,100561.08
2022-09-04T06:09:43.210Z,100558.02
2022-09-04T06:12:28.359Z,100558.02
2022-09-04T06:18:31.395Z,100562.96
2022-09-04T06:21:07.190Z,100563.99
2022-09-04T06:23:46.740Z,100571.28
2022-09-04T06:26:34.835Z,100569.00
2022-09-04T06:29:17.014Z,100564.59
2022-09-04T06:32:05.735Z,100564.59
2022-09-04T06:37:39.472Z,100571.17
2022-09-04T06:40:27.416Z,100586.41
2022-09-04T06:46:00.176Z,100599.59
2022-09-04T06:48:53.463Z,100599.59
2022-09-04T06:51:38.790Z,100592.30
2022-09-04T06:54:18.053Z,100603.36
2022-09-04T07:00:06.844Z,100600.90
2022-09-04T07:05:48.127Z,100611.22
2022-09-04T07:08:27.523Z,100611.22
2022-09-04T07:11:34.720Z,100608.75
2022-09-04T07:14:27.981Z,100602.23
2022-09-04T07:17:17.686Z,100602.23
2022-09-04T07:20:07.242Z,100604.22
2022-09-04T07:22:59.729Z,100600.22
2022-09-04T07:25:38.861Z,100605.50
2022-09-04T07:28:12.288Z,100609.66
2022-09-04T07:30:46.581Z,100612.20
2022-09-04T07:33:22.222Z,100612.20
2022-09-04T07:36:04.126Z,100612.25
2022-09-04T07:38:53.334Z,100607.86
2022-09-04T07:41:32.770Z,100607.86
2022-09-04T07:44:15.146Z,100615.75
2022-09-04T07:46:57.168Z,100615.75
2022-09-04T07:49:30.520Z,100618.46
2022-09-04T07:52:04.916Z,100618.46
2022-09-04T07:54:59.098Z,100624.55
2022-09-04T07:57:56.947Z,100616.98
2022-09-04T08:00:31.656Z,100616.14
2022-09-04T08:03:19.404Z,100623.44
2022-09-04T08:06:19.950Z,100623.44
2022-09-04T08:12:19.596Z,100636.91
2022-09-04T08:15:09.451Z,100631.82
2022-09-04T08:17:59.969Z,100632.88
2022-09-04T08:20:55.869Z,100632.88
2022-09-04T08:23:45.342Z,100636.67
2022-09-04T08:26:21.246Z,100635.75
2022-09-04T08:29:14.259Z,100635.75
2022-09-04T08:32:09.014Z,100637.38
2022-09-04T08:34:55.951Z,100629.80
2022-09-04T08:37:42.793Z,100644.66
2022-09-04T08:40:32.606Z,100644.53
2022-09-04T08:43:18.344Z,100649.08
2022-09-04T08:46:20.640Z,100651.22
2022-09-04T08:49:11.897Z,100650.14
2022-09-04T08:52:04.616Z,100649.50
2022-09-04T08:58:13.429Z,100667.64
2022-09-04T09:01:19.826Z,100657.62
2022-09-04T09:04:26.002Z,100657.62
2022-09-04T09:07:08.255Z,100667.17
2022-09-04T09:10:14.613Z,100671.39
2022-09-04T09:13:14.457Z,100662.63
2022-09-04T09:16:09.029Z,100660.67
2022-09-04T09:18:50.938Z,100658.77
2022-09-04T09:27:39.682Z,100654.41
2022-09-04T09:30:21.251Z,100661.02
2022-09-04T09:36:33.253Z,100658.14
2022-09-04T09:39:15.649Z,100668.99
2022-09-04T09:42:11.470Z,100668.99
2022-09-04T09:45:01.506Z,100667.49
2022-09-04T09:47:52.584Z,100667.64
2022-09-04T09:50:38.329Z,100666.14
2022-09-04T09:53:31.849Z,100666.14
2022-09-04T09:56:23.211Z,100673.05
2022-09-04T09:59:15.893Z,100669.53
2022-09-04T10:01:51.928Z,100679.77
2022-09-04T10:04:40.109Z,100679.77
2022-09-04T10:07:32.756Z,100687.95
2022-09-04T10:10:25.303Z,100682.11
2022-09-04T10:13:19.801Z,100681.53
2022-09-04T10:16:03.915Z,100685.44
2022-09-04T10:19:04.310Z,100689.86
2022-09-04T10:21:57.188Z,100681.91
2022-09-04T10:24:52.777Z,100682.75
2022-09-04T10:27:31.745Z,100682.75
2022-09-04T10:30:06.290Z,100685.05
2022-09-04T10:32:42.881Z,100695.58
2022-09-04T10:35:24.742Z,100695.58
2022-09-04T10:38:07.073Z,100700.03
2022-09-04T10:41:04.549Z,100698.22
2022-09-04T10:44:06.549Z,100708.78
2022-09-04T10:46:48.857Z,100703.80
2022-09-04T10:49:57.949Z,100703.61
2022-09-04T10:52:53.481Z,100708.08
2022-09-04T10:55:49.225Z,100708.08
2022-09-04T10:58:52.837Z,100701.13
2022-09-04T11:01:40.684Z,100693.95
2022-09-04T11:04:23.194Z,100697.15
2022-09-04T11:07:14.677Z,100693.64
2022-09-04T11:12:48.715Z,100692.19
2022-09-04T11:15:30.895Z,100698.73
2022-09-04T11:21:10.505Z,100693.10
2022-09-04T11:24:11.239Z,100690.30
2022-09-04T11:27:07.427Z,100690.30
2022-09-04T11:29:47.918Z,100682.52
2022-09-04T11:32:29.498Z,100686.63
2022-09-04T11:35:34.865Z,100687.55
2022-09-04T11:38:26.306Z,100687.55
2022-09-04T11:41:05.621Z,100698.84
2022-09-04T11:43:56.867Z,100702.84
2022-09-04T11:47:03.062Z,100694.20
2022-09-04T11:50:05.426Z,100700.06
2022-09-04T11:53:12.020Z,100697.30
2022-09-04T11:56:09.645Z,100697.30
2022-09-04T11:58:54.805Z,100684.11
2022-09-04T12:01:28.319Z,100684.11
2022-09-04T12:04:28.376Z,100685.99
2022-09-04T12:07:33.681Z,100690.07
2022-09-04T12:10:18.225Z,100684.89
2022-09-04T12:13:14.675Z,100683.63
2022-09-04T12:16:02.571Z,100693.43
2022-09-04T12:19:02.422Z,100693.43
2022-09-04T12:21:59.873Z,100703.58
2022-09-04T12:24:47.967Z,100704.02
2022-09-04T12:27:26.653Z,100704.02
2022-09-04T12:30:05.630Z,100704.43
2022-09-04T12:33:08.744Z,100711.64
2022-09-04T12:36:05.075Z,100715.89
2022-09-04T12:38:59.309Z,100700.02
2022-09-04T12:41:49.871Z,100696.66
2022-09-04T12:44:41.189Z,100712.38
2022-09-04T12:47:26.083Z,100701.86
2022-09-04T12:50:08.848Z,100701.86
2022-09-04T12:53:03.422Z,100704.38
2022-09-04T12:55:57.833Z,100710.66
2022-09-04T12:58:47.691Z,100703.63
2022-09-04T13:01:32.740Z,100704.01
2022-09-04T13:04:06.307Z,100704.01
2022-09-04T13:07:15.704Z,100718.50
2022-09-04T13:10:09.877Z,100708.16
2022-09-04T13:13:06.100Z,100708.16
2022-09-04T13:15:57.583Z,100701.69
2022-09-04T13:18:40.083Z,100699.28
2022-09-04T13:21:31.067Z,100702.09
2022-09-04T13:24:16.110Z,100696.95
2022-09-04T13:27:17.453Z,100702.75
2022-09-04T13:30:09.093Z,100703.97
2022-09-04T13:32:54.326Z,100703.97
2022-09-04T13:35:44.798Z,100704.99
2022-09-04T13:38:35.998Z,100715.11
2022-09-04T13:41:30.246Z,100706.12
2022-09-04T13:44:06.131Z,100719.95
2022-09-04T13:46:48.289Z,100715.34
2022-09-04T13:52:08.741Z,100729.81
2022-09-04T13:54:44.679Z,100729.81
2022-09-04T13:57:20.890Z,100744.12
2022-09-04T13:59:51.606Z,100737.69
2022-09-04T14:02:35.144Z,100740.84
2022-09-04T14:05:11.384Z,100735.82
2022-09-04T14:07:46.097Z,100737.59
2022-09-04T14:10:22.086Z,100738.21
2022-09-04T14:13:01.344Z,100737.98
2022-09-04T14:18:49.573Z,100741.28
2022-09-04T14:21:43.615Z,100741.28
2022-09-04T14:24:22.652Z,100749.08
2022-09-04T14:27:11.388Z,100738.59
2022-09-04T14:30:02.719Z,100745.05
2022-09-04T14:33:06.209Z,100742.62
2022-09-04T14:35:46.374Z,100742.62
2022-09-04T14:38:31.474Z,100745.91
2022-09-04T14:41:19.669Z,100751.00
2022-09-04T14:43:58.336Z,100749.22
2022-09-04T14:46:43.535Z,100755.91
2022-09-04T14:49:19.670Z,100755.91
2022-09-04T14:51:55.701Z,100758.62
2022-09-04T14:54:33.672Z,100754.59
2022-09-04T14:57:24.419Z,100759.02
2022-09-04T15:00:05.965Z,100761.74
2022-09-04T15:03:04.567Z,100755.71
2022-09-04T15:05:50.780Z,100755.71
2022-09-04T15:08:35.671Z,100757.21
2022-09-04T15:11:08.663Z,100753.60
2022-09-04T15:13:48.389Z,100774.48
2022-09-04T15:16:27.641Z,100774.48
2022-09-04T15:19:00.963Z,100765.41
2022-09-04T15:21:37.516Z,100772.43
2022-09-04T15:24:30.221Z,100765.14
2022-09-04T15:27:12.686Z,100765.14
2022-09-04T15:29:53.434Z,100778.70
2022-09-04T15:32:29.702Z,100778.70
2022-09-04T15:35:21.516Z,100779.73
2022-09-04T15:38:24.645Z,100779.73
2022-09-04T15:41:16.993Z,100794.17
2022-09-04T15:49:31.165Z,100794.53
2022-09-04T15:52:22.357Z,100805.55
2022-09-04T15:55:03.107Z,100797.33
2022-09-04T15:57:45.752Z,100803.85
2022-09-04T16:00:22.896Z,100805.55
2022-09-04T16:03:04.769Z,100804.16
2022-09-04T16:05:46.783Z,100804.55
2022-09-04T16:08:21.143Z,100807.00
2022-09-04T16:11:12.751Z,100803.77
2022-09-04T16:13:46.697Z,100817.98
2022-09-04T16:16:39.812Z,100810.52
2022-09-04T16:19:28.930Z,100815.03
2022-09-04T16:22:41.462Z,100819.30
2022-09-04T16:25:14.739Z,100809.67
2022-09-04T16:27:50.958Z,100824.33
2022-09-04T16:30:39.266Z,100826.27
2022-09-04T16:33:27.767Z,100829.06
2022-09-04T16:36:18.034Z,100813.91
2022-09-04T16:38:59.955Z,100827.66
2022-09-04T16:41:42.480Z,100833.42
2022-09-04T16:44:27.403Z,100833.42
2022-09-04T16:47:12.574Z,100830.97
2022-09-04T16:50:10.178Z,100839.88
2022-09-04T16:52:46.371Z,100839.88
2022-09-04T16:55:28.534Z,100845.47
2022-09-04T16:58:12.254Z,100847.91
2022-09-04T17:00:54.444Z,100847.91
2022-09-04T17:03:29.341Z,100858.84
2022-09-04T17:06:02.608Z,100851.36
2022-09-04T17:08:35.985Z,100864.27
2022-09-04T17:11:31.888Z,100861.66
2022-09-04T17:14:11.297Z,100861.66
2022-09-04T17:16:53.983Z,100864.36
2022-09-04T17:19:25.655Z,100854.84
2022-09-04T17:28:53.904Z,100855.90
2022-09-04T17:29:02.284Z,100854.27
2022-09-04T17:29:10.279Z,100851.34
2022-09-04T17:31:02.290Z,100859.28
2022-09-04T17:40:33.848Z,100862.91
2022-09-04T17:40:37.076Z,100869.80
2022-09-04T17:40:55.089Z,100871.16
2022-09-04T17:41:55.821Z,100874.75
2022-09-04T17:44:50.872Z,100875.99
2022-09-04T17:47:32.480Z,100875.99
2022-09-04T17:50:04.784Z,100879.42
2022-09-04T17:52:38.143Z,100879.42
2022-09-04T17:55:11.629Z,100879.69
2022-09-04T17:57:53.475Z,100883.09
2022-09-04T18:00:30.177Z,100882.13
2022-09-04T18:03:09.021Z,100882.13
2022-09-04T18:05:53.778Z,100883.83
2022-09-04T18:08:29.283Z,100883.47
2022-09-04T18:11:14.332Z,100883.47
2022-09-04T18:14:20.255Z,100880.14
2022-09-04T18:23:16.970Z,100875.23
2022-09-04T18:25:50.245Z,100884.69
2022-09-04T18:28:23.787Z,100884.69
2022-09-04T18:37:05.535Z,100878.91
2022-09-04T18:37:16.620Z,100880.12
2022-09-04T18:37:26.392Z,100888.48
2022-09-04T18:39:14.717Z,100888.48
2022-09-04T18:50:20.644Z,100888.98
2022-09-04T18:50:39.518Z,100885.69
2022-09-04T18:53:15.620Z,100885.65
2022-09-04T18:58:36.215Z,100885.72
2022-09-04T19:01:27.037Z,100880.66
2022-09-04T19:04:00.708Z,100889.40
2022-09-04T19:09:48.707Z,100890.87
2022-09-04T19:12:19.094Z,100884.42
2022-09-04T19:14:53.169Z,100888.86
2022-09-04T19:17:27.099Z,100888.86
2022-09-04T19:20:16.745Z,100903.16
2022-09-04T19:22:56.951Z,100909.70
2022-09-04T19:25:36.961Z,100904.25
2022-09-04T19:28:13.238Z,100904.25
2022-09-04T19:36:32.416Z,100894.83
2022-09-04T19:45:53.771Z,100902.59
2022-09-04T19:46:14.378Z,100896.45
2022-09-04T19:46:19.485Z,100896.07
2022-09-04T19:47:29.107Z,100902.02
2022-09-04T19:53:17.690Z,100902.02
2022-09-04T19:53:33.790Z,100900.81
2022-09-04T19:55:48.054Z,100903.81
2022-09-04T19:58:21.642Z,100903.81
2022-09-04T20:01:04.266Z,100900.56
2022-09-04T20:04:01.000Z,100909.36
2022-09-04T20:06:34.732Z,100899.55
2022-09-04T20:09:40.888Z,100907.83
2022-09-04T20:12:33.416Z,100907.83
2022-09-04T20:15:12.617Z,100909.62
2022-09-04T20:18:08.963Z,100914.47
2022-09-04T20:21:04.881Z,100914.54
2022-09-04T20:24:06.040Z,100915.78
2022-09-04T20:26:48.738Z,100915.78
2022-09-04T20:29:26.347Z,100919.41
2022-09-04T20:32:26.667Z,100919.41
2022-09-04T20:35:13.162Z,100909.16
2022-09-04T20:37:45.943Z,100910.30
2022-09-04T20:40:22.865Z,100910.30
2022-09-04T20:43:09.250Z,100912.89
2022-09-04T20:50:21.790Z,100911.98
2022-09-04T20:52:54.030Z,100916.66
2022-09-04T20:52:57.016Z,100913.88
2022-09-04T20:54:55.155Z,100904.28
2022-09-04T21:02:23.124Z,100905.42
2022-09-04T21:03:21.624Z,100905.42
2022-09-04T21:03:28.166Z,100900.84
2022-09-04T21:05:46.100Z,100899.86
2022-09-04T21:08:31.130Z,100899.86
2022-09-04T21:11:04.272Z,100899.19
2022-09-04T21:13:49.466Z,100899.19
2022-09-04T21:16:52.197Z,100903.44
2022-09-04T21:19:41.869Z,100906.27
2022-09-04T21:22:33.872Z,100903.48
2022-09-04T21:25:07.421Z,100897.55
2022-09-04T21:27:44.036Z,100902.41
2022-09-04T21:30:19.269Z,100904.77
2022-09-04T21:33:03.677Z,100914.17
2022-09-04T21:35:41.665Z,100910.95
2022-09-04T21:38:39.102Z,100907.80
2022-09-04T21:41:35.293Z,100907.80
2022-09-04T21:44:30.853Z,100909.34
2022-09-04T21:47:30.471Z,100909.34
2022-09-04T21:50:36.412Z,100910.86
2022-09-04T21:53:12.713Z,100910.61
2022-09-04T22:00:00.691Z,100917.66
2022-09-04T22:02:36.671Z,100918.08
2022-09-04T22:02:40.287Z,100918.95
2022-09-04T22:04:57.031Z,100921.05
2022-09-04T22:11:26.833Z,100921.05
2022-09-04T22:13:30.218Z,100920.12
2022-09-04T22:13:41.160Z,100922.70
2022-09-04T22:15:58.568Z,100920.08
2022-09-04T22:18:34.302Z,100927.48
2022-09-04T22:21:31.483Z,100915.82
2022-09-04T22:24:13.565Z,100919.12
2022-09-04T22:26:49.792Z,100915.50
2022-09-04T22:29:48.794Z,100914.63
2022-09-04T22:32:47.848Z,100914.63
2022-09-04T22:35:52.871Z,100909.38
2022-09-04T22:44:51.676Z,100916.98
2022-09-04T22:47:30.619Z,100904.08
2022-09-04T22:50:49.224Z,100903.56
2022-09-04T22:53:03.494Z,100899.84
2022-09-04T22:56:17.823Z,100899.84
2022-09-04T22:58:51.197Z,100905.34
2022-09-04T23:02:01.299Z,100909.22
2022-09-04T23:13:42.345Z,100899.14
2022-09-04T23:13:48.668Z,100903.66
2022-09-04T23:13:57.714Z,100901.14
2022-09-04T23:16:28.282Z,100901.14
2022-09-04T23:21:59.748Z,100900.04
2022-09-04T23:26:33.321Z,100909.22
2022-09-04T23:26:44.824Z,100909.22
2022-09-04T23:27:59.500Z,100903.14
2022-09-04T23:30:34.162Z,100908.86
2022-09-04T23:33:44.711Z,100914.06
2022-09-04T23:36:28.521Z,100917.81
2022-09-04T23:39:02.199Z,100921.63
2022-09-04T23:41:53.012Z,100917.16
2022-09-04T23:47:47.858Z,100920.22
2022-09-04T23:50:49.143Z,100921.41
2022-09-04T23:53:48.074Z,100921.41
2022-09-04T23:56:24.231Z,100914.76
2022-09-04T23:59:05.758Z,100915.54
